sensor_id;sensor_type;location;lat;lon;timestamp;P1;durP1;ratioP1;P2;durP2;ratioP2
7585;SDS011;12459;42.646;23.292;2023-07-20T00:12:59;48.43;;;46.23;;
7585;SDS011;12459;42.646;23.292;2023-07-20T00:28:01;50.93;;;48.60;;
7585;SDS011;12459;42.646;23.292;2023-07-20T00:43:03;45.87;;;43.77;;
7585;SDS011;12459;42.646;23.292;2023-07-20T00:58:05;48.87;;;46.67;;
7585;SDS011;12459;42.646;23.292;2023-07-20T01:13:07;52.70;;;50.30;;
7585;SDS011;12459;42.646;23.292;2023-07-20T01:43:59;45.00;;;42.97;;
7585;SDS011;12459;42.646;23.292;2023-07-20T01:59:01;40.30;;;38.47;;
7585;SDS011;12459;42.646;23.292;2023-07-20T02:14:02;44.87;;;42.83;;
7585;SDS011;12459;42.646;23.292;2023-07-20T02:29:04;44.60;;;42.60;;
7585;SDS011;12459;42.646;23.292;2023-07-20T02:44:09;44.67;;;42.63;;
7585;SDS011;12459;42.646;23.292;2023-07-20T03:29:14;39.57;;;37.77;;
7585;SDS011;12459;42.646;23.292;2023-07-20T03:44:17;39.63;;;37.80;;
7585;SDS011;12459;42.646;23.292;2023-07-20T04:14:21;40.90;;;39.00;;
7585;SDS011;12459;42.646;23.292;2023-07-20T04:29:23;47.07;;;44.93;;
7585;SDS011;12459;42.646;23.292;2023-07-20T04:44:24;44.13;;;42.13;;
7585;SDS011;12459;42.646;23.292;2023-07-20T04:59:26;48.87;;;46.67;;
7585;SDS011;12459;42.646;23.292;2023-07-20T05:14:28;48.90;;;46.70;;
7585;SDS011;12459;42.646;23.292;2023-07-20T05:29:30;48.43;;;46.23;;
7585;SDS011;12459;42.646;23.292;2023-07-20T05:44:32;48.53;;;46.33;;
7585;SDS011;12459;42.646;23.292;2023-07-20T05:59:34;52.60;;;50.23;;
7585;SDS011;12459;42.646;23.292;2023-07-20T06:14:36;51.57;;;49.27;;
7585;SDS011;12459;42.646;23.292;2023-07-20T06:29:38;55.03;;;52.53;;
7585;SDS011;12459;42.646;23.292;2023-07-20T06:44:40;53.63;;;51.20;;
7585;SDS011;12459;42.646;23.292;2023-07-20T06:59:41;62.80;;;60.00;;
7585;SDS011;12459;42.646;23.292;2023-07-20T07:14:43;62.37;;;59.57;;
7585;SDS011;12459;42.646;23.292;2023-07-20T07:29:45;62.50;;;59.70;;
7585;SDS011;12459;42.646;23.292;2023-07-20T07:44:46;55.07;;;52.57;;
7585;SDS011;12459;42.646;23.292;2023-07-20T07:59:48;66.97;;;63.97;;
7585;SDS011;12459;42.646;23.292;2023-07-20T08:14:51;64.27;;;61.37;;
7585;SDS011;12459;42.646;23.292;2023-07-20T08:29:52;62.13;;;59.33;;
7585;SDS011;12459;42.646;23.292;2023-07-20T08:44:54;59.17;;;56.53;;
7585;SDS011;12459;42.646;23.292;2023-07-20T08:59:57;62.03;;;59.23;;
7585;SDS011;12459;42.646;23.292;2023-07-20T09:14:58;63.83;;;60.97;;
7585;SDS011;12459;42.646;23.292;2023-07-20T09:30:00;63.20;;;60.37;;
7585;SDS011;12459;42.646;23.292;2023-07-20T09:45:07;66.80;;;63.80;;
7585;SDS011;12459;42.646;23.292;2023-07-20T10:00:09;66.17;;;63.17;;
7585;SDS011;12459;42.646;23.292;2023-07-20T10:15:23;65.67;;;62.73;;
7585;SDS011;12459;42.646;23.292;2023-07-20T10:30:28;65.20;;;62.27;;
7585;SDS011;12459;42.646;23.292;2023-07-20T11:00:36;66.53;;;63.53;;
7585;SDS011;12459;42.646;23.292;2023-07-20T11:31:13;65.57;;;62.67;;
7585;SDS011;12459;42.646;23.292;2023-07-20T11:46:17;71.63;;;68.43;;
7585;SDS011;12459;42.646;23.292;2023-07-20T12:01:19;67.73;;;64.70;;
7585;SDS011;12459;42.646;23.292;2023-07-20T12:16:21;64.03;;;61.13;;
7585;SDS011;12459;42.646;23.292;2023-07-20T12:31:24;71.23;;;68.03;;
7585;SDS011;12459;42.646;23.292;2023-07-20T12:46:26;75.10;;;71.70;;
7585;SDS011;12459;42.646;23.292;2023-07-20T13:01:30;62.47;;;59.67;;
7585;SDS011;12459;42.646;23.292;2023-07-20T13:16:32;73.37;;;70.07;;
7585;SDS011;12459;42.646;23.292;2023-07-20T13:31:35;72.17;;;68.93;;
7585;SDS011;12459;42.646;23.292;2023-07-20T13:46:38;74.83;;;71.50;;
7585;SDS011;12459;42.646;23.292;2023-07-20T14:01:43;70.80;;;67.60;;
7585;SDS011;12459;42.646;23.292;2023-07-20T14:16:45;70.53;;;67.37;;
7585;SDS011;12459;42.646;23.292;2023-07-20T14:31:47;63.37;;;60.53;;
7585;SDS011;12459;42.646;23.292;2023-07-20T14:46:54;60.37;;;57.67;;
7585;SDS011;12459;42.646;23.292;2023-07-20T15:02:14;61.53;;;58.77;;
7585;SDS011;12459;42.646;23.292;2023-07-20T15:17:15;69.43;;;66.33;;
7585;SDS011;12459;42.646;23.292;2023-07-20T15:32:17;72.57;;;69.30;;
7585;SDS011;12459;42.646;23.292;2023-07-20T15:47:19;66.77;;;63.77;;
7585;SDS011;12459;42.646;23.292;2023-07-20T16:02:21;69.17;;;66.07;;
7585;SDS011;12459;42.646;23.292;2023-07-20T16:17:23;67.57;;;64.57;;
7585;SDS011;12459;42.646;23.292;2023-07-20T16:47:30;63.00;;;60.20;;
7585;SDS011;12459;42.646;23.292;2023-07-20T17:02:31;61.63;;;58.87;;
7585;SDS011;12459;42.646;23.292;2023-07-20T17:17:34;67.60;;;64.60;;
7585;SDS011;12459;42.646;23.292;2023-07-20T17:32:37;62.10;;;59.30;;
7585;SDS011;12459;42.646;23.292;2023-07-20T17:47:38;58.40;;;55.80;;
7585;SDS011;12459;42.646;23.292;2023-07-20T18:02:41;59.70;;;57.00;;
7585;SDS011;12459;42.646;23.292;2023-07-20T18:17:44;56.90;;;54.33;;
7585;SDS011;12459;42.646;23.292;2023-07-20T18:32:46;58.37;;;55.77;;
7585;SDS011;12459;42.646;23.292;2023-07-20T18:47:48;57.43;;;54.83;;
7585;SDS011;12459;42.646;23.292;2023-07-20T19:02:50;56.83;;;54.23;;
7585;SDS011;12459;42.646;23.292;2023-07-20T19:17:52;52.77;;;50.37;;
7585;SDS011;12459;42.646;23.292;2023-07-20T19:32:54;55.40;;;52.90;;
7585;SDS011;12459;42.646;23.292;2023-07-20T19:47:56;55.00;;;52.50;;
7585;SDS011;12459;42.646;23.292;2023-07-20T20:02:58;52.47;;;50.10;;
7585;SDS011;12459;42.646;23.292;2023-07-20T20:18:03;54.57;;;52.10;;
7585;SDS011;12459;42.646;23.292;2023-07-20T20:33:05;52.63;;;50.23;;
7585;SDS011;12459;42.646;23.292;2023-07-20T20:48:07;46.93;;;44.83;;
7585;SDS011;12459;42.646;23.292;2023-07-20T21:03:09;55.13;;;52.63;;
7585;SDS011;12459;42.646;23.292;2023-07-20T21:18:11;47.20;;;45.07;;
7585;SDS011;12459;42.646;23.292;2023-07-20T21:33:13;47.27;;;45.13;;
7585;SDS011;12459;42.646;23.292;2023-07-20T21:48:15;41.17;;;39.27;;
7585;SDS011;12459;42.646;23.292;2023-07-20T22:03:17;49.10;;;46.90;;
7585;SDS011;12459;42.646;23.292;2023-07-20T22:18:23;48.07;;;45.87;;
7585;SDS011;12459;42.646;23.292;2023-07-20T22:33:37;46.43;;;44.33;;
7585;SDS011;12459;42.646;23.292;2023-07-20T22:48:39;48.57;;;46.37;;
7585;SDS011;12459;42.646;23.292;2023-07-20T23:03:40;43.03;;;41.03;;
7585;SDS011;12459;42.646;23.292;2023-07-20T23:18:42;41.03;;;39.13;;
7585;SDS011;12459;42.646;23.292;2023-07-20T23:33:44;46.47;;;44.37;;
7585;SDS011;12459;42.646;23.292;2023-07-20T23:48:46;46.77;;;44.67;;
